Time;durP1;ratioP1;P1;durP2;ratioP2;P2;SDS_P1;SDS_P2;PMS_P1;PMS_P2;Temp;Humidity;BMP_temperature;BMP_pressure;BME280_temperature;BME280_humidity;BME280_pressure;Samples;Min_cycle;Max_cycle;Signal;HPM_P1;HPM_P2
2024/04/10 00:00:22;;;;;;;0.95;0.95;;;;;;;7.76;80.61;97393.53;29395;257;63005;-89
2024/04/10 00:00:54;;;;;;;0.50;0.50;;;;;;;7.74;80.55;97392.97;29395;252;63009;-91
2024/04/10 00:01:26;;;;;;;0.50;0.50;;;;;;;7.75;80.30;97394.59;29395;212;63004;-91
2024/04/10 00:02:00;;;;;;;0.50;0.50;;;;;;;7.76;80.26;97395.41;29395;210;63009;-89
2024/04/10 00:02:31;;;;;;;0.50;0.50;;;;;;;7.76;80.32;97390.81;29395;209;63004;-89
2024/04/10 00:03:05;;;;;;;0.50;0.50;;;;;;;7.72;80.43;97395.94;29394;284;64013;-88
2024/04/10 00:03:37;;;;;;;0.60;0.60;;;;;;;7.72;80.58;97397.81;29395;196;63004;-90
2024/04/10 00:04:08;;;;;;;0.50;0.50;;;;;;;7.72;80.41;97400.53;29395;236;63008;-90
2024/04/10 00:04:41;;;;;;;0.50;0.50;;;;;;;7.71;80.36;97398.91;29395;210;63005;-89
2024/04/10 00:05:13;;;;;;;0.50;0.50;;;;;;;7.59;80.08;97385.63;29395;198;63009;-89
2024/04/10 00:05:57;;;;;;;0.50;0.50;;;;;;;7.67;81.31;97406.72;29395;285;63005;-90
2024/04/10 00:06:28;;;;;;;0.50;0.50;;;;;;;7.57;81.35;97398.56;29395;230;63009;-90
2024/04/10 00:07:00;;;;;;;0.50;0.50;;;;;;;7.64;81.32;97403.72;29395;211;63005;-89
2024/04/10 00:07:31;;;;;;;0.50;0.50;;;;;;;7.65;80.70;97406.16;29395;223;63016;-90
2024/04/10 00:08:04;;;;;;;0.60;0.60;;;;;;;7.66;80.58;97404.28;29394;214;64009;-90
2024/04/10 00:08:36;;;;;;;0.50;0.50;;;;;;;7.70;80.21;97408.06;29395;218;63009;-91
2024/04/10 00:09:07;;;;;;;0.50;0.50;;;;;;;7.71;80.46;97415.09;29395;231;63004;-89
2024/04/10 00:09:39;;;;;;;0.50;0.50;;;;;;;7.72;80.66;97422.13;29395;199;63009;-92
2024/04/10 00:10:11;;;;;;;0.50;0.50;;;;;;;7.71;80.50;97421.31;29395;209;63010;-89
2024/04/10 00:10:42;;;;;;;0.50;0.50;;;;;;;7.74;80.18;97418.09;29395;212;63014;-90
2024/04/10 00:11:13;;;;;;;0.60;0.60;;;;;;;7.75;80.07;97421.62;29395;217;63004;-89
2024/04/10 00:11:47;;;;;;;0.50;0.50;;;;;;;7.77;80.04;97422.16;29395;218;63008;-91
2024/04/10 00:12:20;;;;;;;0.50;0.50;;;;;;;7.79;80.00;97414.63;29395;216;63005;-90
2024/04/10 00:12:51;;;;;;;0.50;0.50;;;;;;;7.81;79.71;97417.87;29395;240;63009;-89
2024/04/10 00:13:22;;;;;;;0.50;0.50;;;;;;;7.82;80.20;97416.81;29394;203;64009;-88
2024/04/10 00:13:54;;;;;;;0.50;0.50;;;;;;;7.80;80.50;97418.94;29395;202;63009;-88
2024/04/10 00:14:25;;;;;;;0.50;0.50;;;;;;;7.80;80.43;97429.75;29394;240;64009;-91
2024/04/10 00:14:57;;;;;;;0.50;0.50;;;;;;;7.80;80.23;97418.94;29395;254;63009;-88
2024/04/10 00:15:28;;;;;;;0.50;0.50;;;;;;;7.79;80.22;97420.03;29395;251;63004;-89
2024/04/10 00:16:07;;;;;;;0.50;0.50;;;;;;;7.77;80.05;97418.66;29394;218;64009;-88
2024/04/10 00:16:39;;;;;;;0.50;0.50;;;;;;;7.76;80.06;97423.25;29395;220;63004;-88
2024/04/10 00:17:10;;;;;;;0.50;0.50;;;;;;;7.77;80.30;97415.94;29395;216;63009;-88
2024/04/10 00:17:41;;;;;;;0.50;0.50;;;;;;;7.77;80.16;97415.94;29395;232;63004;-90
2024/04/10 00:18:12;;;;;;;0.50;0.50;;;;;;;7.76;79.94;97415.13;29395;233;63022;-88
2024/04/10 00:18:43;;;;;;;0.50;0.50;;;;;;;7.77;80.11;97424.87;29395;234;63004;-88
2024/04/10 00:19:15;;;;;;;0.50;0.50;;;;;;;7.75;80.33;97416.22;29394;202;64008;-89
2024/04/10 00:19:52;;;;;;;0.50;0.50;;;;;;;7.73;80.86;97419.19;29394;245;64023;-89
2024/04/10 00:20:23;;;;;;;0.60;0.60;;;;;;;7.71;80.89;97418.63;29395;317;63009;-89
2024/04/10 00:20:56;;;;;;;0.50;0.50;;;;;;;7.72;80.53;97412.16;29395;221;63005;-90
2024/04/10 00:21:32;;;;;;;0.50;0.50;;;;;;;7.72;80.41;97419.44;29395;296;63005;-88
2024/04/10 00:22:04;;;;;;;0.60;0.60;;;;;;;7.70;80.53;97419.69;29395;312;63005;-89
2024/04/10 00:22:35;;;;;;;0.50;0.50;;;;;;;7.69;80.16;97422.66;29395;210;63009;-90
2024/04/10 00:23:06;;;;;;;0.60;0.60;;;;;;;7.73;80.04;97418.38;29395;248;63000;-89
2024/04/10 00:23:37;;;;;;;0.50;0.50;;;;;;;7.74;79.52;97414.59;29395;395;63009;-89
2024/04/10 00:24:09;;;;;;;0.50;0.50;;;;;;;7.74;79.46;97414.59;29395;240;63004;-89
2024/04/10 00:24:41;;;;;;;0.50;0.50;;;;;;;7.74;79.71;97414.59;29395;209;63009;-88
2024/04/10 00:25:12;;;;;;;0.60;0.60;;;;;;;7.76;79.44;97420.53;29394;212;64009;-88
2024/04/10 00:25:59;;;;;;;0.50;0.50;;;;;;;7.80;79.14;97413.53;29395;281;63004;-88
2024/04/10 00:26:31;;;;;;;0.50;0.50;;;;;;;7.78;79.47;97412.19;29395;253;63005;-88
2024/04/10 00:27:02;;;;;;;0.50;0.50;;;;;;;7.78;79.17;97421.09;29395;233;63009;-88
2024/04/10 00:27:34;;;;;;;0.50;0.50;;;;;;;7.76;79.79;97412.44;29395;211;63005;-88
2024/04/10 00:28:05;;;;;;;0.50;0.50;;;;;;;7.73;79.85;97419.19;29395;232;63009;-90
2024/04/10 00:28:36;;;;;;;0.60;0.60;;;;;;;7.72;80.23;97422.13;29395;216;63005;-88
2024/04/10 00:29:08;;;;;;;0.60;0.60;;;;;;;7.67;81.13;97424.81;29395;227;63009;-90
2024/04/10 00:29:39;;;;;;;0.50;0.50;;;;;;;7.65;80.78;97427.75;29395;216;63005;-89
2024/04/10 00:30:10;;;;;;;0.50;0.50;;;;;;;7.65;80.42;97426.94;29395;216;63009;-89
2024/04/10 00:30:43;;;;;;;0.60;0.60;;;;;;;7.66;80.35;97421.28;29394;197;64009;-90
2024/04/10 00:31:15;;;;;;;0.50;0.50;;;;;;;7.66;80.53;97417.78;29395;211;63009;-89
2024/04/10 00:31:47;;;;;;;0.50;0.50;;;;;;;7.66;80.27;97417.78;29395;198;63004;-89
2024/04/10 00:32:18;;;;;;;0.50;0.50;;;;;;;7.64;80.12;97420.72;29395;218;63009;-89
2024/04/10 00:32:50;;;;;;;0.50;0.50;;;;;;;7.63;80.15;97429.91;29394;301;64004;-88
2024/04/10 00:33:21;;;;;;;0.50;0.50;;;;;;;7.63;80.65;97429.09;29395;212;63008;-89
2024/04/10 00:33:53;;;;;;;0.50;0.50;;;;;;;7.62;80.46;97436.38;29395;208;63005;-89
2024/04/10 00:34:24;;;;;;;0.50;0.50;;;;;;;7.62;80.37;97432.91;29395;206;63024;-88
2024/04/10 00:34:55;;;;;;;0.50;0.50;;;;;;;7.60;81.21;97437.75;29395;227;63005;-90
2024/04/10 00:35:26;;;;;;;0.50;0.50;;;;;;;7.59;81.08;97433.41;29395;208;63009;-89
2024/04/10 00:36:00;;;;;;;0.50;0.50;;;;;;;7.59;81.18;97438.81;29394;211;64009;-89
2024/04/10 00:36:31;;;;;;;0.60;0.60;;;;;;;7.58;81.14;97443.41;29395;227;63009;-89
2024/04/10 00:37:03;;;;;;;0.50;0.50;;;;;;;7.58;81.13;97448.00;29395;251;63005;-89
2024/04/10 00:37:36;;;;;;;0.50;0.50;;;;;;;7.56;81.33;97442.84;29395;221;63009;-89
2024/04/10 00:38:07;;;;;;;0.60;0.60;;;;;;;7.59;81.22;97441.53;29394;377;64009;-89
2024/04/10 00:38:38;;;;;;;0.60;0.60;;;;;;;7.59;81.26;97438.81;29395;296;63009;-90
2024/04/10 00:39:12;;;;;;;0.50;0.50;;;;;;;7.57;81.20;97438.25;29395;275;63004;-89
2024/04/10 00:39:43;;;;;;;0.50;0.50;;;;;;;7.57;81.47;97443.66;29395;209;63009;-90
2024/04/10 00:40:14;;;;;;;0.60;0.60;;;;;;;7.56;82.06;97444.75;29395;287;63004;-89
2024/04/10 00:40:58;;;;;;;0.50;0.50;;;;;;;7.55;82.12;97443.94;29395;214;63008;-92
2024/04/10 00:41:31;;;;;;;0.60;0.60;;;;;;;7.52;82.87;97443.62;29395;198;63005;-90
2024/04/10 00:42:04;;;;;;;0.50;0.50;;;;;;;7.50;82.60;97445.78;29395;222;63009;-90
2024/04/10 00:42:36;;;;;;;0.50;0.50;;;;;;;7.50;82.53;97446.59;29394;203;64000;-89
2024/04/10 00:43:12;;;;;;;0.50;0.50;;;;;;;7.49;82.65;97436.03;29395;345;63009;-91
2024/04/10 00:43:44;;;;;;;0.50;0.50;;;;;;;7.50;82.60;97445.78;29395;202;63005;-89
2024/04/10 00:44:16;;;;;;;0.50;0.50;;;;;;;7.48;82.42;97445.22;29395;202;63009;-88
2024/04/10 00:44:54;;;;;;;0.50;0.50;;;;;;;7.47;82.63;97440.87;29395;196;63004;-89
2024/04/10 00:45:25;;;;;;;0.50;0.50;;;;;;;7.48;82.58;97453.31;29395;237;63009;-89
2024/04/10 00:46:08;;;;;;;0.50;0.50;;;;;;;7.47;82.53;97457.09;29395;208;63004;-89
2024/04/10 00:46:41;;;;;;;0.50;0.50;;;;;;;7.44;82.53;97453.00;29395;202;63009;-88
2024/04/10 00:47:12;;;;;;;0.50;0.50;;;;;;;7.44;82.63;97449.50;29395;202;63004;-89
2024/04/10 00:47:44;;;;;;;0.50;0.50;;;;;;;7.42;82.72;97454.34;29394;198;64030;-89
2024/04/10 00:48:16;;;;;;;0.50;0.50;;;;;;;7.43;82.59;97450.56;29395;220;63004;-89
2024/04/10 00:48:48;;;;;;;0.50;0.50;;;;;;;7.40;82.91;97444.62;29395;203;63008;-89
2024/04/10 00:49:19;;;;;;;0.50;0.50;;;;;;;7.40;82.51;97444.62;29394;294;64005;-88
2024/04/10 00:49:51;;;;;;;0.60;0.60;;;;;;;7.40;82.26;97447.31;29395;215;63009;-90
2024/04/10 00:50:26;;;;;;;0.50;0.50;;;;;;;7.42;82.20;97443.53;29394;197;64009;-90
2024/04/10 00:50:59;;;;;;;0.50;0.50;;;;;;;7.39;82.46;97453.78;29395;204;63009;-90
2024/04/10 00:51:31;;;;;;;0.50;0.50;;;;;;;7.38;82.37;97454.84;29395;222;63005;-89
2024/04/10 00:52:03;;;;;;;0.50;0.50;;;;;;;7.36;82.48;97451.59;29395;225;63009;-89
2024/04/10 00:52:36;;;;;;;0.50;0.50;;;;;;;7.36;82.52;97450.78;29395;243;63000;-90
2024/04/10 00:53:08;;;;;;;0.50;0.50;;;;;;;7.36;82.19;97451.59;29395;215;63009;-89
2024/04/10 00:53:44;;;;;;;0.50;0.50;;;;;;;7.36;82.60;97445.38;29395;231;63004;-89
2024/04/10 00:54:17;;;;;;;0.50;0.50;;;;;;;7.35;82.17;97452.66;29395;221;63009;-88
2024/04/10 00:54:49;;;;;;;0.50;0.50;;;;;;;7.27;82.21;97445.06;29395;237;63004;-87
2024/04/10 00:55:22;;;;;;;0.50;0.50;;;;;;;7.36;82.68;97454.31;29395;203;63009;-88
2024/04/10 00:55:53;;;;;;;0.50;0.50;;;;;;;7.34;82.56;97448.34;29394;212;64008;-88
2024/04/10 00:56:24;;;;;;;0.50;0.50;;;;;;;7.34;82.62;97448.34;29395;236;63008;-90
2024/04/10 00:56:55;;;;;;;0.50;0.50;;;;;;;7.32;82.74;97449.66;29395;255;63005;-89
2024/04/10 00:57:28;;;;;;;0.50;0.50;;;;;;;7.31;82.87;97443.47;29395;367;63009;-90
2024/04/10 00:58:00;;;;;;;0.50;0.50;;;;;;;7.30;82.87;97435.62;29395;305;63005;-89
2024/04/10 00:58:33;;;;;;;0.60;0.60;;;;;;;7.33;82.43;97438.63;29394;235;64013;-88
2024/04/10 00:59:07;;;;;;;0.57;0.57;;;;;;;7.33;82.46;97440.50;29395;342;63005;-89
2024/04/10 00:59:39;;;;;;;0.50;0.50;;;;;;;7.32;82.10;97431.59;29395;211;63009;-89
2024/04/10 01:00:12;;;;;;;0.50;0.50;;;;;;;7.34;82.05;97437.53;29395;239;63005;-90
2024/04/10 01:00:44;;;;;;;0.60;0.60;;;;;;;7.32;83.43;97434.28;29395;202;63009;-91
2024/04/10 01:01:15;;;;;;;0.60;0.60;;;;;;;7.30;83.48;97441.03;29395;319;63004;-89
2024/04/10 01:01:47;;;;;;;0.50;0.50;;;;;;;7.30;82.81;97441.84;29395;224;63009;-88
2024/04/10 01:02:18;;;;;;;0.60;0.60;;;;;;;7.30;82.85;97436.44;29394;223;64009;-90
2024/04/10 01:02:50;;;;;;;0.60;0.60;;;;;;;7.31;82.67;97442.66;29394;216;64013;-90
2024/04/10 01:03:22;;;;;;;0.60;0.60;;;;;;;7.27;82.35;97445.06;29395;239;63011;-90
2024/04/10 01:03:53;;;;;;;0.50;0.50;;;;;;;7.27;82.62;97442.38;29394;265;64013;-87
2024/04/10 01:04:24;;;;;;;0.60;0.60;;;;;;;7.25;82.89;97433.72;29395;264;63005;-90
2024/04/10 01:04:56;;;;;;;0.50;0.50;;;;;;;7.27;82.41;97442.38;29396;218;63009;-89
2024/04/10 01:05:27;;;;;;;0.50;0.50;;;;;;;7.26;83.09;97440.75;29395;207;64009;-91
2024/04/10 01:06:00;;;;;;;0.60;0.60;;;;;;;7.25;82.85;97443.72;29396;206;63009;-89
2024/04/10 01:06:31;;;;;;;0.60;0.60;;;;;;;7.25;82.86;97439.13;29396;240;63005;-89
2024/04/10 01:07:12;;;;;;;0.50;0.50;;;;;;;7.22;82.99;97447.72;29396;232;63009;-89
2024/04/10 01:07:44;;;;;;;0.50;0.50;;;;;;;7.24;82.71;97445.59;29396;239;63005;-90
2024/04/10 01:08:15;;;;;;;0.60;0.60;;;;;;;7.24;82.71;97440.19;29396;293;63009;-89
2024/04/10 01:08:47;;;;;;;0.60;0.60;;;;;;;7.23;82.52;97445.84;29395;223;64009;-90
2024/04/10 01:09:18;;;;;;;0.60;0.60;;;;;;;7.24;82.40;97442.88;29395;212;64009;-90
2024/04/10 01:09:49;;;;;;;0.60;0.60;;;;;;;7.25;82.51;97446.41;29396;323;63004;-90
2024/04/10 01:10:21;;;;;;;0.50;0.50;;;;;;;7.23;83.18;97446.66;29396;283;63009;-89
2024/04/10 01:10:52;;;;;;;0.70;0.70;;;;;;;7.17;82.89;97447.69;29395;265;64008;-88
2024/04/10 01:11:24;;;;;;;0.50;0.50;;;;;;;7.26;82.81;97456.94;29396;239;63008;-90
2024/04/10 01:11:56;;;;;;;0.50;0.50;;;;;;;7.25;82.77;97457.19;29396;237;63005;-88
2024/04/10 01:12:30;;;;;;;0.50;0.50;;;;;;;7.24;82.46;97453.69;29396;239;63009;-90
2024/04/10 01:13:02;;;;;;;0.55;0.55;;;;;;;7.18;82.53;97448.50;29396;208;63005;-88
2024/04/10 01:13:34;;;;;;;0.60;0.60;;;;;;;7.25;82.37;97454.50;29396;224;63009;-89
2024/04/10 01:14:06;;;;;;;0.50;0.50;;;;;;;7.25;82.41;97463.41;29396;281;63005;-90
2024/04/10 01:14:37;;;;;;;0.60;0.60;;;;;;;7.24;82.33;97461.78;29396;202;63009;-89
2024/04/10 01:15:08;;;;;;;0.50;0.50;;;;;;;7.24;82.49;97466.38;29396;213;63004;-89
2024/04/10 01:15:39;;;;;;;0.50;0.50;;;;;;;7.24;82.66;97466.38;29396;206;63009;-90
2024/04/10 01:16:10;;;;;;;0.50;0.50;;;;;;;7.23;83.07;97464.75;29395;231;64009;-89
2024/04/10 01:16:42;;;;;;;0.60;0.60;;;;;;;7.22;82.59;97472.03;29396;197;63009;-90
2024/04/10 01:17:13;;;;;;;0.50;0.50;;;;;;;7.22;82.78;97472.03;29396;206;63004;-89
2024/04/10 01:17:45;;;;;;;0.60;0.60;;;;;;;7.20;82.95;97466.06;29396;314;63008;-89
2024/04/10 01:18:16;;;;;;;0.57;0.57;;;;;;;7.17;83.12;97474.69;29396;202;63004;-89
2024/04/10 01:18:47;;;;;;;0.50;0.50;;;;;;;7.17;83.23;97471.97;29396;292;63004;-89
2024/04/10 01:19:18;;;;;;;0.60;0.60;;;;;;;7.15;83.61;97466.03;29396;210;63005;-91
2024/04/10 01:19:50;;;;;;;0.50;0.50;;;;;;;7.15;83.84;97467.91;29395;200;64014;-91
2024/04/10 01:20:21;;;;;;;0.60;0.60;;;;;;;7.14;83.83;97469.78;29396;202;63005;-89
2024/04/10 01:20:52;;;;;;;0.60;0.60;;;;;;;7.12;83.64;97461.13;29396;238;63009;-90
2024/04/10 01:21:24;;;;;;;0.60;0.60;;;;;;;7.12;83.84;97471.94;29396;235;63005;-90
2024/04/10 01:21:55;;;;;;;0.60;0.60;;;;;;;7.12;83.75;97471.94;29396;209;63009;-88
2024/04/10 01:22:26;;;;;;;0.60;0.60;;;;;;;7.11;83.64;97475.69;29396;222;63005;-89
2024/04/10 01:23:00;;;;;;;0.60;0.60;;;;;;;7.11;83.54;97467.59;29396;202;63009;-89
2024/04/10 01:23:31;;;;;;;0.50;0.50;;;;;;;7.10;84.13;97468.66;29396;198;63004;-89
2024/04/10 01:24:03;;;;;;;0.60;0.60;;;;;;;7.08;83.95;97470.81;29396;210;63009;-90
2024/04/10 01:24:34;;;;;;;0.60;0.60;;;;;;;7.11;83.94;97470.28;29396;240;63004;-89
2024/04/10 01:25:05;;;;;;;0.50;0.50;;;;;;;7.02;83.81;97456.44;29395;202;64013;-89
2024/04/10 01:25:38;;;;;;;0.50;0.50;;;;;;;7.11;83.93;97475.69;29396;229;63004;-89
2024/04/10 01:26:12;;;;;;;0.55;0.55;;;;;;;7.10;84.34;97481.34;29395;287;64014;-89
2024/04/10 01:26:44;;;;;;;0.50;0.50;;;;;;;7.07;84.60;97480.78;29396;266;63005;-88
2024/04/10 01:27:15;;;;;;;0.50;0.50;;;;;;;7.04;84.87;97480.47;29396;223;63009;-88
2024/04/10 01:27:46;;;;;;;0.50;0.50;;;;;;;7.01;85.19;97475.59;29396;210;63005;-90
2024/04/10 01:28:17;;;;;;;0.50;0.50;;;;;;;7.00;85.42;97484.75;29396;216;63009;-89
2024/04/10 01:28:49;;;;;;;0.50;0.50;;;;;;;6.96;85.65;97479.06;29396;217;63005;-89
2024/04/10 01:29:21;;;;;;;0.52;0.52;;;;;;;6.96;85.56;97489.03;29396;199;63009;-89
2024/04/10 01:29:52;;;;;;;0.50;0.50;;;;;;;6.96;85.47;97489.84;29396;231;63005;-89
2024/04/10 01:30:24;;;;;;;0.50;0.50;;;;;;;6.97;85.93;97490.66;29396;229;63004;-89
2024/04/10 01:30:55;;;;;;;0.50;0.50;;;;;;;6.94;86.01;97491.16;29396;214;63004;-90
2024/04/10 01:31:30;;;;;;;0.50;0.50;;;;;;;6.95;85.50;97490.09;29395;205;64013;-89
2024/04/10 01:32:01;;;;;;;0.50;0.50;;;;;;;6.96;85.47;97492.53;29396;256;63004;-89
2024/04/10 01:32:32;;;;;;;0.50;0.50;;;;;;;6.96;85.79;97489.03;29396;235;63009;-89
2024/04/10 01:33:04;;;;;;;0.60;0.60;;;;;;;6.94;86.55;97496.56;29396;218;63004;-90
2024/04/10 01:33:35;;;;;;;0.50;0.50;;;;;;;6.90;86.50;97492.78;29396;229;63009;-89
2024/04/10 01:34:09;;;;;;;0.60;0.60;;;;;;;6.90;86.19;97500.87;29396;223;63012;-90
2024/04/10 01:34:43;;;;;;;0.60;0.60;;;;;;;6.90;86.00;97495.47;29396;215;63009;-89
2024/04/10 01:35:14;;;;;;;0.60;0.60;;;;;;;6.90;85.97;97490.06;29396;218;63005;-90
2024/04/10 01:35:46;;;;;;;0.60;0.60;;;;;;;6.89;86.08;97504.62;29396;264;63009;-89
2024/04/10 01:36:18;;;;;;;0.50;0.50;;;;;;;6.90;86.05;97500.87;29396;212;63005;-89
2024/04/10 01:36:49;;;;;;;0.50;0.50;;;;;;;6.90;86.20;97498.97;29395;307;64013;-88
2024/04/10 01:37:21;;;;;;;0.50;0.50;;;;;;;6.91;86.03;97503.31;29395;202;64009;-89
2024/04/10 01:37:52;;;;;;;0.50;0.50;;;;;;;6.89;86.23;97504.62;29396;206;63009;-88
2024/04/10 01:38:23;;;;;;;0.50;0.50;;;;;;;6.90;86.22;97500.87;29396;240;63004;-89
2024/04/10 01:38:54;;;;;;;0.50;0.50;;;;;;;6.81;85.94;97494.28;29396;213;63009;-88
2024/04/10 01:39:26;;;;;;;0.50;0.50;;;;;;;6.89;86.17;97502.75;29396;239;63004;-88
2024/04/10 01:39:58;;;;;;;0.50;0.50;;;;;;;6.89;85.79;97500.06;29395;256;64013;-88
2024/04/10 01:40:29;;;;;;;0.50;0.50;;;;;;;6.89;85.79;97500.06;29396;222;63004;-89
2024/04/10 01:41:00;;;;;;;0.50;0.50;;;;;;;6.82;85.68;97498.63;29396;210;63009;-90
2024/04/10 01:41:32;;;;;;;0.50;0.50;;;;;;;6.92;85.47;97504.12;29395;197;64009;-90
2024/04/10 01:42:05;;;;;;;0.50;0.50;;;;;;;6.91;85.67;97503.31;29395;214;64014;-90
2024/04/10 01:42:38;;;;;;;0.50;0.50;;;;;;;6.92;85.67;97506.81;29396;197;63007;-88
2024/04/10 01:43:09;;;;;;;0.50;0.50;;;;;;;6.91;85.62;97507.88;29396;331;63009;-88
2024/04/10 01:43:40;;;;;;;0.50;0.50;;;;;;;6.90;85.56;97496.28;29396;249;63005;-89
2024/04/10 01:44:12;;;;;;;0.50;0.50;;;;;;;6.91;85.42;97505.19;29395;271;64013;-88
2024/04/10 01:44:43;;;;;;;0.50;0.50;;;;;;;6.90;85.63;97501.69;29396;223;63005;-88
2024/04/10 01:45:15;;;;;;;0.50;0.50;;;;;;;6.89;85.49;97502.75;29396;318;63009;-89
2024/04/10 01:45:49;;;;;;;0.50;0.50;;;;;;;6.88;85.58;97503.00;29396;234;63004;-89
2024/04/10 01:46:21;;;;;;;0.50;0.50;;;;;;;6.86;86.09;97499.75;29396;215;63009;-88
2024/04/10 01:46:52;;;;;;;0.50;0.50;;;;;;;6.85;85.98;97506.19;29395;215;64009;-88
2024/04/10 01:47:24;;;;;;;0.50;0.50;;;;;;;6.85;86.00;97508.91;29396;356;63017;-89
2024/04/10 01:47:55;;;;;;;0.50;0.50;;;;;;;6.84;86.31;97496.47;29396;219;63004;-88
2024/04/10 01:48:26;;;;;;;0.50;0.50;;;;;;;6.84;86.26;97504.56;29396;198;63008;-89
2024/04/10 01:48:58;;;;;;;0.50;0.50;;;;;;;6.84;86.37;97496.47;29397;205;63005;-91
2024/04/10 01:49:29;;;;;;;0.50;0.50;;;;;;;6.83;86.09;97497.53;29397;235;63009;-88
2024/04/10 01:50:00;;;;;;;0.60;0.60;;;;;;;6.83;85.90;97500.25;29397;269;63005;-89
2024/04/10 01:50:33;;;;;;;0.50;0.50;;;;;;;6.84;85.86;97497.28;29397;285;63010;-87
2024/04/10 01:51:04;;;;;;;0.50;0.50;;;;;;;6.85;86.04;97500.81;29396;332;64009;-88
2024/04/10 01:51:36;;;;;;;0.50;0.50;;;;;;;6.86;85.88;97497.84;29396;211;64009;-85
2024/04/10 01:52:07;;;;;;;0.50;0.50;;;;;;;6.90;85.67;97501.69;29397;217;63005;-88
2024/04/10 01:52:39;;;;;;;0.50;0.50;;;;;;;6.90;85.57;97498.97;29397;222;63009;-89
2024/04/10 01:53:10;;;;;;;0.50;0.50;;;;;;;6.91;85.63;97500.59;29397;211;63004;-89
2024/04/10 01:53:41;;;;;;;0.50;0.50;;;;;;;6.93;85.47;97503.06;29397;221;63026;-89
2024/04/10 01:54:13;;;;;;;0.50;0.50;;;;;;;6.92;85.56;97509.53;29397;200;63004;-89
2024/04/10 01:54:50;;;;;;;0.50;0.50;;;;;;;6.91;85.53;97505.19;29397;313;63009;-89
2024/04/10 01:55:21;;;;;;;0.50;0.50;;;;;;;6.91;86.23;97497.91;29397;227;63012;-88
2024/04/10 01:55:53;;;;;;;0.50;0.50;;;;;;;6.89;86.03;97507.31;29397;206;63008;-88
2024/04/10 01:56:24;;;;;;;0.50;0.50;;;;;;;6.87;86.17;97495.97;29396;220;64009;-89
2024/04/10 01:56:55;;;;;;;0.60;0.60;;;;;;;6.85;86.20;97504.31;29396;203;64014;-91
2024/04/10 01:57:28;;;;;;;0.50;0.50;;;;;;;6.86;86.53;97499.75;29397;202;63005;-89
2024/04/10 01:58:00;;;;;;;0.50;0.50;;;;;;;6.74;86.77;97489.09;29397;357;63008;-88
2024/04/10 01:58:31;;;;;;;0.60;0.60;;;;;;;6.82;86.81;97507.53;29397;203;63005;-89
2024/04/10 01:59:03;;;;;;;0.50;0.50;;;;;;;6.82;86.32;97502.13;29397;210;63009;-89
2024/04/10 01:59:36;;;;;;;0.50;0.50;;;;;;;6.81;86.30;97507.78;29396;232;64009;-89
2024/04/10 02:00:10;;;;;;;0.50;0.50;;;;;;;6.81;86.56;97505.06;29397;203;63009;-89
2024/04/10 02:00:41;;;;;;;0.50;0.50;;;;;;;6.82;86.18;97510.22;29397;273;63004;-88
2024/04/10 02:01:13;;;;;;;0.50;0.50;;;;;;;6.83;86.02;97516.44;29397;235;63009;-89
2024/04/10 02:01:44;;;;;;;0.50;0.50;;;;;;;6.84;86.31;97512.66;29396;302;63004;-88
2024/04/10 02:02:15;;;;;;;0.60;0.60;;;;;;;6.82;87.00;97520.19;29396;204;63008;-89
2024/04/10 02:02:47;;;;;;;0.50;0.50;;;;;;;6.82;86.92;97517.50;29395;280;64008;-89
2024/04/10 02:03:18;;;;;;;0.50;0.50;;;;;;;6.80;86.44;97517.75;29397;245;63008;-89
2024/04/10 02:03:49;;;;;;;0.50;0.50;;;;;;;6.81;86.34;97523.97;29396;221;63005;-88
2024/04/10 02:04:21;;;;;;;0.50;0.50;;;;;;;6.81;86.20;97518.56;29396;302;63009;-89
2024/04/10 02:04:52;;;;;;;0.50;0.50;;;;;;;6.81;86.27;97515.87;29396;210;63005;-89
2024/04/10 02:05:23;;;;;;;0.50;0.50;;;;;;;6.80;86.08;97523.13;29396;208;63009;-88
2024/04/10 02:05:54;;;;;;;0.50;0.50;;;;;;;6.79;86.54;97521.50;29396;238;63005;-89
2024/04/10 02:06:26;;;;;;;0.50;0.50;;;;;;;6.79;86.37;97523.37;29396;212;63009;-89
2024/04/10 02:06:57;;;;;;;0.50;0.50;;;;;;;6.77;86.62;97523.66;29396;245;63005;-88
2024/04/10 02:07:28;;;;;;;0.50;0.50;;;;;;;6.77;86.60;97528.22;29396;219;63009;-91
2024/04/10 02:08:00;;;;;;;0.60;0.60;;;;;;;6.75;86.86;97524.97;29395;215;64009;-90
2024/04/10 02:08:31;;;;;;;0.50;0.50;;;;;;;6.73;86.91;97517.94;29396;332;63009;-89
2024/04/10 02:09:02;;;;;;;0.50;0.50;;;;;;;6.72;86.96;97523.59;29396;232;63004;-88
2024/04/10 02:09:33;;;;;;;0.50;0.50;;;;;;;6.71;87.03;97524.66;29396;196;63008;-89
2024/04/10 02:10:06;;;;;;;0.60;0.60;;;;;;;6.71;86.61;97528.16;29397;382;63006;-88
2024/04/10 02:10:37;;;;;;;0.60;0.60;;;;;;;6.72;86.93;97526.28;29396;379;63009;-91
2024/04/10 02:11:25;;;;;;;0.50;0.50;;;;;;;6.73;86.77;97534.13;29397;231;63005;-89
2024/04/10 02:11:57;;;;;;;0.65;0.65;;;;;;;6.77;86.62;97533.63;29396;305;63009;-88
2024/04/10 02:12:28;;;;;;;0.50;0.50;;;;;;;6.78;86.63;97532.56;29396;209;63005;-89
2024/04/10 02:12:59;;;;;;;0.60;0.60;;;;;;;6.80;86.60;97527.72;29396;236;63009;-89
2024/04/10 02:13:30;;;;;;;0.50;0.50;;;;;;;6.81;86.51;97529.34;29395;205;64009;-89
2024/04/10 02:14:01;;;;;;;0.50;0.50;;;;;;;6.80;86.37;97528.53;29396;205;63009;-89
2024/04/10 02:14:35;;;;;;;0.50;0.50;;;;;;;6.82;86.07;97528.28;29396;199;63004;-88
2024/04/10 02:15:08;;;;;;;0.50;0.50;;;;;;;6.83;86.14;97527.22;29396;216;63009;-88
2024/04/10 02:15:40;;;;;;;0.50;0.50;;;;;;;6.85;85.91;97530.47;29396;239;63004;-88
2024/04/10 02:16:11;;;;;;;0.50;0.50;;;;;;;6.85;85.92;97525.91;29396;198;63009;-90
2024/04/10 02:16:43;;;;;;;0.50;0.50;;;;;;;6.86;86.13;97532.09;29396;197;63004;-89
2024/04/10 02:17:14;;;;;;;0.57;0.57;;;;;;;6.85;86.14;97530.47;29396;238;63012;-90
2024/04/10 02:17:46;;;;;;;0.50;0.50;;;;;;;6.83;86.24;97530.72;29396;222;63004;-90
2024/04/10 02:18:17;;;;;;;0.50;0.50;;;;;;;6.81;86.22;97535.56;29395;213;64009;-89
2024/04/10 02:18:48;;;;;;;0.50;0.50;;;;;;;6.80;86.38;97533.13;29396;210;63005;-88
2024/04/10 02:19:20;;;;;;;0.50;0.50;;;;;;;6.79;86.65;97528.78;29396;217;63009;-89
2024/04/10 02:19:52;;;;;;;0.50;0.50;;;;;;;6.77;86.63;97536.31;29396;197;63005;-90
2024/04/10 02:20:23;;;;;;;0.60;0.60;;;;;;;6.77;86.21;97534.44;29396;211;63009;-90
2024/04/10 02:21:00;;;;;;;0.50;0.50;;;;;;;6.80;86.07;97533.13;29396;240;63005;-90
2024/04/10 02:21:32;;;;;;;0.60;0.60;;;;;;;6.82;85.97;97528.28;29396;196;63009;-89
2024/04/10 02:22:05;;;;;;;0.50;0.50;;;;;;;6.83;86.23;97527.22;29396;197;63005;-88
2024/04/10 02:22:40;;;;;;;0.50;0.50;;;;;;;6.82;86.36;97531.78;29395;222;64013;-89
2024/04/10 02:23:12;;;;;;;0.50;0.50;;;;;;;6.82;87.07;97539.06;29396;227;63004;-87
2024/04/10 02:23:43;;;;;;;0.50;0.50;;;;;;;6.80;87.29;97538.50;29396;226;63009;-90
2024/04/10 02:24:14;;;;;;;0.50;0.50;;;;;;;6.77;87.45;97539.00;29395;199;64009;-90
2024/04/10 02:24:46;;;;;;;0.50;0.50;;;;;;;6.76;87.32;97540.06;29396;219;63008;-91
2024/04/10 02:25:17;;;;;;;0.50;0.50;;;;;;;6.75;87.14;97543.84;29395;215;64008;-89
2024/04/10 02:25:48;;;;;;;0.50;0.50;;;;;;;6.73;87.05;97538.69;29396;206;63009;-91
2024/04/10 02:26:20;;;;;;;0.50;0.50;;;;;;;6.73;87.10;97538.69;29395;211;64009;-90
2024/04/10 02:26:51;;;;;;;0.50;0.50;;;;;;;6.72;87.31;97545.16;29396;276;63009;-89
2024/04/10 02:27:22;;;;;;;0.50;0.50;;;;;;;6.69;87.69;97538.38;29396;321;63005;-90
2024/04/10 02:27:54;;;;;;;0.50;0.50;;;;;;;6.69;87.48;97537.56;29396;214;63015;-89
2024/04/10 02:28:26;;;;;;;0.50;0.50;;;;;;;6.68;87.66;97538.63;29396;249;63005;-89
2024/04/10 02:28:57;;;;;;;0.60;0.60;;;;;;;6.67;88.10;97534.31;29396;272;63009;-89
2024/04/10 02:29:28;;;;;;;0.60;0.60;;;;;;;6.70;87.38;97539.19;29396;214;63005;-89
2024/04/10 02:29:59;;;;;;;0.60;0.60;;;;;;;6.71;87.32;97541.66;29396;216;63009;-90
2024/04/10 02:30:31;;;;;;;0.50;0.50;;;;;;;6.70;87.18;97540.00;29397;222;63018;-89
2024/04/10 02:31:04;;;;;;;0.50;0.50;;;;;;;6.67;87.34;97543.22;29396;225;63009;-90
2024/04/10 02:31:36;;;;;;;0.50;0.50;;;;;;;6.66;87.31;97538.87;29395;197;64009;-88
2024/04/10 02:32:08;;;;;;;0.60;0.60;;;;;;;6.66;87.31;97544.28;29396;220;63009;-88
2024/04/10 02:32:40;;;;;;;0.50;0.50;;;;;;;6.66;87.20;97538.87;29396;199;63004;-90
2024/04/10 02:33:11;;;;;;;0.60;0.60;;;;;;;6.70;86.83;97550.00;29395;334;64009;-89
2024/04/10 02:33:43;;;;;;;0.50;0.50;;;;;;;6.70;86.96;97550.81;29396;233;63005;-90
2024/04/10 02:34:15;;;;;;;0.60;0.60;;;;;;;6.75;86.94;97546.53;29396;244;63009;-89
2024/04/10 02:34:46;;;;;;;0.50;0.50;;;;;;;6.72;86.87;97542.47;29396;203;63005;-90
2024/04/10 02:35:18;;;;;;;0.50;0.50;;;;;;;6.72;86.52;97548.66;29396;208;63009;-90